Skip Navigation Links Skip Navigation Links

Current Weather

Reid-Hillview Of Santa Clara County, San Jose, Calif.

For information only: do not use for flight planning or navigation.
Latest weather
Observation time Monday, November 29, 2021 12:49 PM PST
Local time Monday, November 29, 2021 1:38 PM PST
Flight conditions Visual Meteorological Conditions
Winds
Wind speed calm
Visibility 10 mi.
Sky condition
Ceiling unlimited
Sky clear
Temperature 66°F
Dewpoint 46°F
Altimeter 30.14 in.Hg
Derived measurements
Relative humidity 49%
Density altitude 508 ft.
METAR KRHV 292049Z 00000KT 10SM SKC 19/08 A3014

Settings

Location code

InnerDrive.Weather 4.0.6770.0 Release CLR 4.0.30319.42000
Copyright ©2018 Inner Drive Technology. All rights reserved. Portions Copyright ©1986-2018 David Braverman.

Find weather

Site navigation


Skip Navigation Links

Place info

Page info

PayPal - The safer, easier way to pay online!

Return home.

Copyright ©2021 Inner Drive Technology. Purveyors of fine, hand-crafted computer software. Page printed 2021-11-29T21:38:01 UTC.